createdAt,value
2019-05-02T00:02:52.950Z,95214.00
2019-05-02T00:08:22.971Z,95215.00
2019-05-02T00:13:53.980Z,95202.00
2019-05-02T00:19:23.388Z,95198.00
2019-05-02T00:24:52.892Z,95189.00
2019-05-02T00:30:22.619Z,95186.00
2019-05-02T00:35:52.069Z,95188.00
2019-05-02T00:41:21.513Z,95189.00
2019-05-02T00:46:51.266Z,95173.00
2019-05-02T00:52:20.885Z,95167.00
2019-05-02T00:57:50.866Z,95168.00
2019-05-02T01:03:22.274Z,95168.00
2019-05-02T01:08:51.783Z,95162.00
2019-05-02T01:14:21.294Z,95152.00
2019-05-02T01:19:51.579Z,95153.00
2019-05-02T01:25:22.150Z,95151.00
2019-05-02T01:31:13.079Z,95135.00
2019-05-02T01:36:45.675Z,95148.00
2019-05-02T01:42:15.257Z,95136.00
2019-05-02T01:47:44.780Z,95131.00
2019-05-02T01:53:14.242Z,95126.00
2019-05-02T01:58:43.747Z,95129.00
2019-05-02T02:04:16.292Z,95128.00
2019-05-02T02:09:46.314Z,95126.00
2019-05-02T02:15:16.069Z,95121.00
2019-05-02T02:20:56.349Z,95118.00
2019-05-02T02:26:25.786Z,95122.00
2019-05-02T02:31:55.259Z,95124.00
2019-05-02T02:37:24.556Z,95124.00
2019-05-02T02:42:53.960Z,95116.00
2019-05-02T02:48:23.727Z,95111.00
2019-05-02T02:54:02.826Z,95109.00
2019-05-02T02:59:26.273Z,95111.00
2019-05-02T03:04:55.446Z,95111.00
2019-05-02T03:10:24.842Z,95105.00
2019-05-02T03:16:07.007Z,95103.00
2019-05-02T03:21:38.885Z,95104.00
2019-05-02T03:27:08.373Z,95099.00
2019-05-02T03:32:37.967Z,95100.00
2019-05-02T03:38:07.447Z,95092.00
2019-05-02T03:43:37.064Z,95090.00
2019-05-02T03:49:09.387Z,95090.00
2019-05-02T03:54:49.084Z,95094.00
2019-05-02T04:00:13.609Z,95088.00
2019-05-02T04:05:42.238Z,95097.00
2019-05-02T04:11:21.238Z,95100.00
2019-05-02T04:16:55.293Z,95095.00
2019-05-02T04:22:22.988Z,95100.00
2019-05-02T04:27:52.627Z,95097.00
2019-05-02T04:33:22.249Z,95105.00
2019-05-02T04:38:52.621Z,95102.00
2019-05-02T04:44:29.872Z,95106.00
2019-05-02T04:49:53.917Z,95114.00
2019-05-02T04:55:29.952Z,95112.00
2019-05-02T05:01:01.007Z,95113.00
2019-05-02T05:06:27.755Z,95120.00
2019-05-02T05:12:07.050Z,95122.00
2019-05-02T05:17:37.542Z,95116.00
2019-05-02T05:23:08.210Z,95115.00
2019-05-02T05:28:40.569Z,95130.00
2019-05-02T05:34:09.834Z,95123.00
2019-05-02T05:39:43.060Z,95116.00
2019-05-02T05:45:13.737Z,95119.00
2019-05-02T05:50:42.115Z,95127.00
2019-05-02T05:56:11.588Z,95118.00
2019-05-02T06:01:41.066Z,95123.00
2019-05-02T06:07:10.482Z,95131.00
2019-05-02T06:12:39.871Z,95121.00
2019-05-02T06:18:09.308Z,95126.00
2019-05-02T06:23:41.383Z,95127.00
2019-05-02T06:29:12.950Z,95127.00
2019-05-02T06:34:46.489Z,95131.00
2019-05-02T06:40:12.613Z,95130.00
2019-05-02T06:45:42.111Z,95122.00
2019-05-02T06:51:19.658Z,95124.00
2019-05-02T06:56:43.189Z,95123.00
2019-05-02T07:02:14.065Z,95129.00
2019-05-02T07:07:43.792Z,95121.00
2019-05-02T07:13:15.041Z,95106.00
2019-05-02T07:18:47.685Z,95125.00
2019-05-02T07:24:17.725Z,95110.00
2019-05-02T07:29:47.290Z,95109.00
2019-05-02T07:35:19.304Z,95115.00
2019-05-02T07:40:48.301Z,95112.00
2019-05-02T07:46:21.035Z,95115.00
2019-05-02T07:51:52.265Z,95114.00
2019-05-02T07:57:25.273Z,95105.00
2019-05-02T08:02:57.911Z,95108.00
2019-05-02T08:08:24.992Z,95101.00
2019-05-02T08:14:00.310Z,95108.00
2019-05-02T08:19:26.951Z,95101.00
2019-05-02T08:24:56.302Z,95098.00
2019-05-02T08:30:27.809Z,95098.00
2019-05-02T08:35:57.402Z,95105.00
2019-05-02T08:41:26.992Z,95097.00
2019-05-02T08:46:56.661Z,95096.00
2019-05-02T08:52:26.164Z,95084.00
2019-05-02T08:57:55.698Z,95083.00
2019-05-02T09:03:25.112Z,95091.00
2019-05-02T09:08:54.526Z,95087.00
2019-05-02T09:14:23.976Z,95078.00
2019-05-02T09:20:02.148Z,95068.00
2019-05-02T09:25:24.745Z,95068.00
2019-05-02T09:30:57.479Z,95066.00
2019-05-02T09:36:25.217Z,95068.00
2019-05-02T09:41:54.720Z,95061.00
2019-05-02T09:47:27.425Z,95049.00
2019-05-02T09:52:57.084Z,95041.00
2019-05-02T09:58:26.555Z,95041.00
2019-05-02T10:03:56.068Z,95020.00
2019-05-02T10:09:27.192Z,95011.00
2019-05-02T10:15:02.859Z,95026.00
2019-05-02T10:20:36.215Z,95001.00
2019-05-02T10:26:03.794Z,94998.00
2019-05-02T10:31:37.471Z,95013.00
2019-05-02T10:37:08.905Z,94990.00
2019-05-02T10:42:38.720Z,94987.00
2019-05-02T10:48:21.501Z,94984.00
2019-05-02T10:53:39.569Z,94963.00
2019-05-02T10:59:08.984Z,94971.00
2019-05-02T11:04:42.102Z,94954.00
2019-05-02T11:10:12.307Z,94961.00
2019-05-02T11:16:01.921Z,94936.00
2019-05-02T11:21:32.223Z,94947.00
2019-05-02T11:27:02.235Z,94925.00
2019-05-02T11:32:32.675Z,94920.00
2019-05-02T11:38:48.290Z,94916.00
2019-05-02T11:43:55.850Z,94926.00
2019-05-02T11:49:25.223Z,94911.00
2019-05-02T11:54:54.538Z,94905.00
2019-05-02T12:00:23.850Z,94901.00
2019-05-02T12:05:53.148Z,94889.00
2019-05-02T12:11:23.059Z,94886.00
2019-05-02T12:16:52.825Z,94866.00
2019-05-02T12:22:22.595Z,94876.00
2019-05-02T12:27:52.687Z,94869.00
2019-05-02T12:33:23.764Z,94865.00
2019-05-02T12:38:53.120Z,94855.00
2019-05-02T12:44:23.935Z,94850.00
2019-05-02T12:49:53.221Z,94847.00
2019-05-02T12:55:22.513Z,94842.00
2019-05-02T13:00:53.091Z,94829.00
2019-05-02T13:06:22.706Z,94843.00
2019-05-02T13:11:53.625Z,94840.00
2019-05-02T13:17:23.022Z,94824.00
2019-05-02T13:22:57.003Z,94819.00
2019-05-02T13:28:26.355Z,94814.00
2019-05-02T13:34:06.511Z,94804.00
2019-05-02T13:39:35.881Z,94789.00
2019-05-02T13:45:12.938Z,94800.00
2019-05-02T13:50:42.443Z,94769.00
2019-05-02T13:56:22.128Z,94784.00
2019-05-02T14:01:53.594Z,94775.00
2019-05-02T14:07:22.879Z,94769.00
2019-05-02T14:12:56.487Z,94764.00
2019-05-02T14:18:29.033Z,94760.00
2019-05-02T14:23:56.834Z,94760.00
2019-05-02T14:29:26.115Z,94750.00
2019-05-02T14:34:57.059Z,94746.00
2019-05-02T14:40:27.994Z,94736.00
2019-05-02T14:45:57.703Z,94737.00
2019-05-02T14:51:28.251Z,94738.00
2019-05-02T14:57:02.134Z,94720.00
2019-05-02T15:02:39.311Z,94744.00
2019-05-02T15:08:07.223Z,94721.00
2019-05-02T15:13:40.959Z,94726.00
2019-05-02T15:19:09.264Z,94723.00
2019-05-02T15:24:38.577Z,94712.00
2019-05-02T15:30:08.343Z,94710.00
2019-05-02T15:35:39.259Z,94705.00
2019-05-02T15:41:12.637Z,94703.00
2019-05-02T15:46:40.263Z,94701.00
2019-05-02T15:52:12.551Z,94690.00
2019-05-02T15:57:45.866Z,94680.00
2019-05-02T16:03:12.963Z,94681.00
2019-05-02T16:08:48.089Z,94688.00
2019-05-02T16:14:17.403Z,94685.00
2019-05-02T16:19:49.598Z,94675.00
2019-05-02T16:25:20.130Z,94675.00
2019-05-02T16:30:52.562Z,94688.00
2019-05-02T16:36:30.144Z,94681.00
2019-05-02T16:41:53.063Z,94680.00
2019-05-02T16:47:22.286Z,94685.00
2019-05-02T16:52:53.114Z,94682.00
2019-05-02T16:58:22.667Z,94689.00
2019-05-02T17:03:53.080Z,94690.00
2019-05-02T17:09:42.396Z,94688.00
2019-05-02T17:15:31.348Z,94700.00
2019-05-02T17:21:01.698Z,94697.00
2019-05-02T17:26:31.789Z,94707.00
2019-05-02T17:32:02.227Z,94709.00
2019-05-02T17:37:32.577Z,94712.00
2019-05-02T17:43:06.588Z,94711.00
2019-05-02T17:48:34.747Z,94726.00
2019-05-02T17:54:04.072Z,94717.00
2019-05-02T17:59:36.634Z,94718.00
2019-05-02T18:05:06.263Z,94718.00
2019-05-02T18:10:36.206Z,94756.00
2019-05-02T18:16:12.212Z,94774.00
2019-05-02T18:21:36.867Z,94786.00
2019-05-02T18:27:06.452Z,94803.00
2019-05-02T18:32:35.747Z,94801.00
2019-05-02T18:38:05.399Z,94811.00
2019-05-02T18:43:36.109Z,94809.00
2019-05-02T18:49:05.860Z,94825.00
2019-05-02T18:54:38.638Z,94824.00
2019-05-02T19:00:08.884Z,94825.00
2019-05-02T19:05:38.212Z,94827.00
2019-05-02T19:17:03.554Z,94837.00
2019-05-02T19:22:32.189Z,94845.00
2019-05-02T19:28:03.435Z,94851.00
2019-05-02T19:33:37.589Z,94861.00
2019-05-02T19:39:09.524Z,94871.00
2019-05-02T19:44:37.687Z,94880.00
2019-05-02T19:50:31.904Z,94876.00
2019-05-02T19:56:03.047Z,94876.00
2019-05-02T20:01:32.788Z,94893.00
2019-05-02T20:07:02.517Z,94892.00
2019-05-02T20:12:31.939Z,94897.00
2019-05-02T20:18:04.645Z,94892.00
2019-05-02T20:23:35.868Z,94891.00
2019-05-02T20:29:12.496Z,94883.00
2019-05-02T20:34:43.359Z,94894.00
2019-05-02T20:40:33.815Z,94895.00
2019-05-02T20:46:03.501Z,94907.00
2019-05-02T20:51:32.984Z,94911.00
2019-05-02T20:57:04.370Z,94919.00
2019-05-02T21:02:34.834Z,94924.00
2019-05-02T21:08:19.102Z,94934.00
2019-05-02T21:13:48.875Z,94948.00
2019-05-02T21:19:21.641Z,94958.00
2019-05-02T21:24:52.857Z,94967.00
2019-05-02T21:30:25.378Z,94975.00
2019-05-02T21:35:55.119Z,94985.00
2019-05-02T21:41:25.882Z,94987.00
2019-05-02T21:46:56.633Z,94973.00
2019-05-02T21:52:42.788Z,94983.00
2019-05-02T21:58:14.348Z,94988.00
2019-05-02T22:03:45.446Z,94993.00
2019-05-02T22:09:17.950Z,94989.00
2019-05-02T22:14:47.607Z,94984.00
2019-05-02T22:20:17.080Z,94990.00
2019-05-02T22:25:46.752Z,94989.00
2019-05-02T22:31:16.684Z,94980.00
2019-05-02T22:36:46.123Z,94985.00
2019-05-02T22:42:16.211Z,94978.00
2019-05-02T22:47:45.782Z,94980.00
2019-05-02T22:53:15.270Z,94987.00
2019-05-02T22:58:44.658Z,94980.00
2019-05-02T23:04:14.947Z,94977.00
2019-05-02T23:09:46.068Z,94968.00
2019-05-02T23:15:15.658Z,94958.00
2019-05-02T23:20:45.101Z,94958.00
2019-05-02T23:26:18.337Z,94960.00
2019-05-02T23:31:48.041Z,94959.00
2019-05-02T23:37:17.718Z,94951.00
2019-05-02T23:42:48.375Z,94962.00
2019-05-02T23:48:18.212Z,94954.00
2019-05-02T23:53:47.695Z,94946.00
2019-05-02T23:59:17.221Z,94928.00
